sensor_id;sensor_type;location;lat;lon;timestamp;P1;durP1;ratioP1;P2;durP2;ratioP2
20739;SDS011;10530;49.968;19.844;2023-08-24T00:02:27;13.80;;;7.73;;
20739;SDS011;10530;49.968;19.844;2023-08-24T00:07:30;20.05;;;8.00;;
20739;SDS011;10530;49.968;19.844;2023-08-24T00:12:34;14.20;;;7.23;;
20739;SDS011;10530;49.968;19.844;2023-08-24T00:17:38;13.25;;;7.35;;
20739;SDS011;10530;49.968;19.844;2023-08-24T00:22:41;14.13;;;6.70;;
20739;SDS011;10530;49.968;19.844;2023-08-24T00:27:43;14.30;;;6.63;;
20739;SDS011;10530;49.968;19.844;2023-08-24T00:32:46;13.77;;;6.97;;
20739;SDS011;10530;49.968;19.844;2023-08-24T00:37:49;12.33;;;6.27;;
20739;SDS011;10530;49.968;19.844;2023-08-24T00:42:53;12.27;;;6.07;;
20739;SDS011;10530;49.968;19.844;2023-08-24T00:47:56;13.25;;;6.38;;
20739;SDS011;10530;49.968;19.844;2023-08-24T00:52:59;13.27;;;6.30;;
20739;SDS011;10530;49.968;19.844;2023-08-24T00:58:02;11.93;;;6.22;;
20739;SDS011;10530;49.968;19.844;2023-08-24T01:03:05;13.53;;;6.20;;
20739;SDS011;10530;49.968;19.844;2023-08-24T01:08:09;14.23;;;6.53;;
20739;SDS011;10530;49.968;19.844;2023-08-24T01:13:12;12.77;;;5.97;;
20739;SDS011;10530;49.968;19.844;2023-08-24T01:18:23;15.30;;;7.03;;
20739;SDS011;10530;49.968;19.844;2023-08-24T01:28:47;11.33;;;5.63;;
20739;SDS011;10530;49.968;19.844;2023-08-24T01:33:50;10.10;;;5.68;;
20739;SDS011;10530;49.968;19.844;2023-08-24T01:38:56;11.18;;;6.10;;
20739;SDS011;10530;49.968;19.844;2023-08-24T01:44:16;11.03;;;5.83;;
20739;SDS011;10530;49.968;19.844;2023-08-24T01:49:25;13.00;;;6.28;;
20739;SDS011;10530;49.968;19.844;2023-08-24T01:54:28;15.50;;;6.07;;
20739;SDS011;10530;49.968;19.844;2023-08-24T01:59:31;11.07;;;5.47;;
20739;SDS011;10530;49.968;19.844;2023-08-24T02:04:34;12.48;;;5.90;;
20739;SDS011;10530;49.968;19.844;2023-08-24T02:09:37;13.23;;;5.83;;
20739;SDS011;10530;49.968;19.844;2023-08-24T02:14:39;14.95;;;5.95;;
20739;SDS011;10530;49.968;19.844;2023-08-24T02:19:42;12.07;;;5.80;;
20739;SDS011;10530;49.968;19.844;2023-08-24T02:24:45;12.77;;;6.00;;
20739;SDS011;10530;49.968;19.844;2023-08-24T02:29:48;12.60;;;6.30;;
20739;SDS011;10530;49.968;19.844;2023-08-24T02:34:51;12.20;;;5.43;;
20739;SDS011;10530;49.968;19.844;2023-08-24T02:39:53;15.73;;;6.53;;
20739;SDS011;10530;49.968;19.844;2023-08-24T02:44:56;12.43;;;6.67;;
20739;SDS011;10530;49.968;19.844;2023-08-24T02:49:59;13.35;;;6.28;;
20739;SDS011;10530;49.968;19.844;2023-08-24T02:55:02;15.07;;;6.30;;
20739;SDS011;10530;49.968;19.844;2023-08-24T03:00:06;14.73;;;6.30;;
20739;SDS011;10530;49.968;19.844;2023-08-24T03:05:09;15.23;;;6.78;;
20739;SDS011;10530;49.968;19.844;2023-08-24T03:10:12;12.27;;;6.33;;
20739;SDS011;10530;49.968;19.844;2023-08-24T03:15:14;12.10;;;5.72;;
20739;SDS011;10530;49.968;19.844;2023-08-24T03:20:18;13.90;;;6.53;;
20739;SDS011;10530;49.968;19.844;2023-08-24T03:25:22;13.50;;;6.13;;
20739;SDS011;10530;49.968;19.844;2023-08-24T03:30:24;15.35;;;6.80;;
20739;SDS011;10530;49.968;19.844;2023-08-24T03:35:28;12.10;;;6.23;;
20739;SDS011;10530;49.968;19.844;2023-08-24T03:40:34;15.00;;;6.53;;
20739;SDS011;10530;49.968;19.844;2023-08-24T03:45:36;13.45;;;6.90;;
20739;SDS011;10530;49.968;19.844;2023-08-24T03:50:40;20.87;;;7.40;;
20739;SDS011;10530;49.968;19.844;2023-08-24T03:55:46;28.33;;;8.82;;
20739;SDS011;10530;49.968;19.844;2023-08-24T04:00:52;23.60;;;8.37;;
20739;SDS011;10530;49.968;19.844;2023-08-24T04:05:56;19.40;;;8.35;;
20739;SDS011;10530;49.968;19.844;2023-08-24T04:10:59;19.05;;;9.07;;
20739;SDS011;10530;49.968;19.844;2023-08-24T04:16:01;16.57;;;7.83;;
20739;SDS011;10530;49.968;19.844;2023-08-24T04:21:06;16.80;;;7.95;;
20739;SDS011;10530;49.968;19.844;2023-08-24T04:26:08;15.93;;;7.57;;
20739;SDS011;10530;49.968;19.844;2023-08-24T04:31:11;17.48;;;8.05;;
20739;SDS011;10530;49.968;19.844;2023-08-24T04:36:14;14.88;;;7.50;;
20739;SDS011;10530;49.968;19.844;2023-08-24T04:41:17;13.03;;;7.47;;
20739;SDS011;10530;49.968;19.844;2023-08-24T04:46:20;14.93;;;8.02;;
20739;SDS011;10530;49.968;19.844;2023-08-24T04:51:22;14.60;;;8.10;;
20739;SDS011;10530;49.968;19.844;2023-08-24T04:56:25;18.15;;;9.35;;
20739;SDS011;10530;49.968;19.844;2023-08-24T05:01:29;17.95;;;9.65;;
20739;SDS011;10530;49.968;19.844;2023-08-24T05:06:34;18.90;;;8.73;;
20739;SDS011;10530;49.968;19.844;2023-08-24T05:11:37;19.73;;;9.85;;
20739;SDS011;10530;49.968;19.844;2023-08-24T05:16:39;19.97;;;10.43;;
20739;SDS011;10530;49.968;19.844;2023-08-24T05:21:42;24.00;;;10.50;;
20739;SDS011;10530;49.968;19.844;2023-08-24T05:26:46;26.67;;;11.60;;
20739;SDS011;10530;49.968;19.844;2023-08-24T05:31:48;23.00;;;11.77;;
20739;SDS011;10530;49.968;19.844;2023-08-24T05:36:51;27.35;;;14.10;;
20739;SDS011;10530;49.968;19.844;2023-08-24T05:41:54;24.47;;;13.20;;
20739;SDS011;10530;49.968;19.844;2023-08-24T05:46:57;25.98;;;13.65;;
20739;SDS011;10530;49.968;19.844;2023-08-24T05:52:00;24.65;;;12.73;;
20739;SDS011;10530;49.968;19.844;2023-08-24T05:57:04;25.73;;;12.87;;
20739;SDS011;10530;49.968;19.844;2023-08-24T06:02:07;25.65;;;12.85;;
20739;SDS011;10530;49.968;19.844;2023-08-24T06:07:10;26.83;;;13.80;;
20739;SDS011;10530;49.968;19.844;2023-08-24T06:12:13;27.60;;;13.70;;
20739;SDS011;10530;49.968;19.844;2023-08-24T06:17:16;23.58;;;12.60;;
20739;SDS011;10530;49.968;19.844;2023-08-24T06:22:18;28.80;;;13.90;;
20739;SDS011;10530;49.968;19.844;2023-08-24T06:27:21;27.70;;;13.85;;
20739;SDS011;10530;49.968;19.844;2023-08-24T06:32:24;29.07;;;15.60;;
20739;SDS011;10530;49.968;19.844;2023-08-24T06:37:27;29.90;;;14.82;;
20739;SDS011;10530;49.968;19.844;2023-08-24T06:42:30;32.35;;;15.65;;
20739;SDS011;10530;49.968;19.844;2023-08-24T06:47:33;29.90;;;14.37;;
20739;SDS011;10530;49.968;19.844;2023-08-24T06:52:36;27.60;;;13.43;;
20739;SDS011;10530;49.968;19.844;2023-08-24T06:57:39;21.73;;;11.60;;
20739;SDS011;10530;49.968;19.844;2023-08-24T07:02:42;22.42;;;12.38;;
20739;SDS011;10530;49.968;19.844;2023-08-24T07:07:46;24.15;;;12.98;;
20739;SDS011;10530;49.968;19.844;2023-08-24T07:12:50;25.70;;;12.20;;
20739;SDS011;10530;49.968;19.844;2023-08-24T07:17:52;19.88;;;11.00;;
20739;SDS011;10530;49.968;19.844;2023-08-24T07:22:55;21.70;;;11.03;;
20739;SDS011;10530;49.968;19.844;2023-08-24T07:27:59;24.95;;;12.35;;
20739;SDS011;10530;49.968;19.844;2023-08-24T07:33:05;26.10;;;12.10;;
20739;SDS011;10530;49.968;19.844;2023-08-24T07:38:08;23.80;;;11.57;;
20739;SDS011;10530;49.968;19.844;2023-08-24T07:43:11;20.80;;;11.13;;
20739;SDS011;10530;49.968;19.844;2023-08-24T07:48:13;16.80;;;8.60;;
20739;SDS011;10530;49.968;19.844;2023-08-24T07:53:17;18.90;;;9.90;;
20739;SDS011;10530;49.968;19.844;2023-08-24T07:58:20;15.90;;;9.05;;
20739;SDS011;10530;49.968;19.844;2023-08-24T08:03:23;18.50;;;9.40;;
20739;SDS011;10530;49.968;19.844;2023-08-24T08:08:25;18.13;;;9.25;;
20739;SDS011;10530;49.968;19.844;2023-08-24T08:13:29;15.97;;;8.63;;
20739;SDS011;10530;49.968;19.844;2023-08-24T08:18:34;12.98;;;7.85;;
20739;SDS011;10530;49.968;19.844;2023-08-24T08:23:37;16.20;;;8.20;;
20739;SDS011;10530;49.968;19.844;2023-08-24T08:28:40;16.77;;;8.57;;
20739;SDS011;10530;49.968;19.844;2023-08-24T08:33:43;13.75;;;7.57;;
20739;SDS011;10530;49.968;19.844;2023-08-24T08:38:46;11.87;;;7.20;;
20739;SDS011;10530;49.968;19.844;2023-08-24T08:43:49;20.52;;;9.38;;
20739;SDS011;10530;49.968;19.844;2023-08-24T08:48:52;13.65;;;7.22;;
20739;SDS011;10530;49.968;19.844;2023-08-24T08:53:56;15.33;;;7.90;;
20739;SDS011;10530;49.968;19.844;2023-08-24T08:58:59;13.10;;;7.13;;
20739;SDS011;10530;49.968;19.844;2023-08-24T09:04:03;13.90;;;6.80;;
20739;SDS011;10530;49.968;19.844;2023-08-24T09:09:07;11.05;;;5.97;;
20739;SDS011;10530;49.968;19.844;2023-08-24T09:14:10;9.88;;;5.88;;
20739;SDS011;10530;49.968;19.844;2023-08-24T09:19:13;10.40;;;6.40;;
20739;SDS011;10530;49.968;19.844;2023-08-24T09:24:16;11.00;;;6.18;;
20739;SDS011;10530;49.968;19.844;2023-08-24T09:29:19;11.23;;;5.87;;
20739;SDS011;10530;49.968;19.844;2023-08-24T09:34:24;9.93;;;5.95;;
20739;SDS011;10530;49.968;19.844;2023-08-24T09:39:30;11.93;;;5.57;;
20739;SDS011;10530;49.968;19.844;2023-08-24T09:44:32;11.77;;;5.95;;
20739;SDS011;10530;49.968;19.844;2023-08-24T09:49:35;11.30;;;5.38;;
20739;SDS011;10530;49.968;19.844;2023-08-24T09:54:38;11.17;;;5.20;;
20739;SDS011;10530;49.968;19.844;2023-08-24T09:59:45;8.40;;;4.70;;
20739;SDS011;10530;49.968;19.844;2023-08-24T10:04:50;8.50;;;5.00;;
20739;SDS011;10530;49.968;19.844;2023-08-24T10:09:57;9.90;;;4.65;;
20739;SDS011;10530;49.968;19.844;2023-08-24T10:15:10;5.93;;;3.40;;
20739;SDS011;10530;49.968;19.844;2023-08-24T10:20:14;6.40;;;2.80;;
20739;SDS011;10530;49.968;19.844;2023-08-24T10:25:19;6.93;;;2.83;;
20739;SDS011;10530;49.968;19.844;2023-08-24T10:30:23;5.25;;;2.63;;
20739;SDS011;10530;49.968;19.844;2023-08-24T10:35:26;6.30;;;2.58;;
20739;SDS011;10530;49.968;19.844;2023-08-24T10:40:30;4.88;;;2.65;;
20739;SDS011;10530;49.968;19.844;2023-08-24T10:46:17;4.60;;;2.40;;
20739;SDS011;10530;49.968;19.844;2023-08-24T10:56:36;5.32;;;2.47;;
20739;SDS011;10530;49.968;19.844;2023-08-24T11:01:42;4.65;;;2.45;;
20739;SDS011;10530;49.968;19.844;2023-08-24T11:06:55;4.15;;;2.03;;
20739;SDS011;10530;49.968;19.844;2023-08-24T11:12:00;5.83;;;2.90;;
20739;SDS011;10530;49.968;19.844;2023-08-24T11:17:23;5.50;;;2.60;;
20739;SDS011;10530;49.968;19.844;2023-08-24T11:22:26;4.70;;;2.50;;
20739;SDS011;10530;49.968;19.844;2023-08-24T11:27:30;6.18;;;2.88;;
20739;SDS011;10530;49.968;19.844;2023-08-24T11:32:36;5.70;;;3.00;;
20739;SDS011;10530;49.968;19.844;2023-08-24T11:37:38;7.33;;;3.43;;
20739;SDS011;10530;49.968;19.844;2023-08-24T11:42:43;7.22;;;3.45;;
20739;SDS011;10530;49.968;19.844;2023-08-24T11:47:45;8.57;;;3.45;;
20739;SDS011;10530;49.968;19.844;2023-08-24T11:52:48;7.47;;;3.40;;
20739;SDS011;10530;49.968;19.844;2023-08-24T11:57:52;6.35;;;2.90;;
20739;SDS011;10530;49.968;19.844;2023-08-24T12:02:55;7.13;;;3.10;;
20739;SDS011;10530;49.968;19.844;2023-08-24T12:07:59;6.15;;;3.40;;
20739;SDS011;10530;49.968;19.844;2023-08-24T12:13:03;5.97;;;2.92;;
20739;SDS011;10530;49.968;19.844;2023-08-24T12:18:16;6.03;;;3.35;;
20739;SDS011;10530;49.968;19.844;2023-08-24T12:23:19;6.00;;;3.10;;
20739;SDS011;10530;49.968;19.844;2023-08-24T12:28:22;5.90;;;3.23;;
20739;SDS011;10530;49.968;19.844;2023-08-24T12:33:26;5.90;;;3.03;;
20739;SDS011;10530;49.968;19.844;2023-08-24T12:38:30;6.68;;;3.20;;
20739;SDS011;10530;49.968;19.844;2023-08-24T12:43:33;9.88;;;3.55;;
20739;SDS011;10530;49.968;19.844;2023-08-24T12:48:37;5.38;;;3.30;;
20739;SDS011;10530;49.968;19.844;2023-08-24T12:53:40;5.97;;;3.40;;
20739;SDS011;10530;49.968;19.844;2023-08-24T12:58:43;5.43;;;3.08;;
20739;SDS011;10530;49.968;19.844;2023-08-24T13:03:45;6.82;;;3.30;;
20739;SDS011;10530;49.968;19.844;2023-08-24T13:08:48;6.07;;;3.38;;
20739;SDS011;10530;49.968;19.844;2023-08-24T13:13:51;6.10;;;3.40;;
20739;SDS011;10530;49.968;19.844;2023-08-24T13:18:54;5.77;;;3.37;;
20739;SDS011;10530;49.968;19.844;2023-08-24T13:23:56;7.35;;;3.22;;
20739;SDS011;10530;49.968;19.844;2023-08-24T13:28:59;5.72;;;3.40;;
20739;SDS011;10530;49.968;19.844;2023-08-24T13:34:03;6.35;;;3.10;;
20739;SDS011;10530;49.968;19.844;2023-08-24T13:39:09;6.10;;;3.10;;
20739;SDS011;10530;49.968;19.844;2023-08-24T13:44:12;6.10;;;3.10;;
20739;SDS011;10530;49.968;19.844;2023-08-24T13:49:16;6.30;;;3.47;;
20739;SDS011;10530;49.968;19.844;2023-08-24T13:54:40;6.70;;;3.42;;
20739;SDS011;10530;49.968;19.844;2023-08-24T13:59:43;7.28;;;3.72;;
20739;SDS011;10530;49.968;19.844;2023-08-24T14:04:46;6.30;;;3.30;;
20739;SDS011;10530;49.968;19.844;2023-08-24T14:09:49;7.90;;;3.27;;
20739;SDS011;10530;49.968;19.844;2023-08-24T14:15:06;6.28;;;3.40;;
20739;SDS011;10530;49.968;19.844;2023-08-24T14:20:09;6.30;;;3.33;;
20739;SDS011;10530;49.968;19.844;2023-08-24T14:25:14;6.85;;;3.53;;
20739;SDS011;10530;49.968;19.844;2023-08-24T14:30:17;6.53;;;3.50;;
20739;SDS011;10530;49.968;19.844;2023-08-24T14:35:20;5.63;;;3.50;;
20739;SDS011;10530;49.968;19.844;2023-08-24T14:40:23;5.97;;;3.30;;
20739;SDS011;10530;49.968;19.844;2023-08-24T14:45:26;6.38;;;3.70;;
20739;SDS011;10530;49.968;19.844;2023-08-24T14:50:29;6.18;;;3.58;;
20739;SDS011;10530;49.968;19.844;2023-08-24T14:55:31;8.80;;;3.78;;
20739;SDS011;10530;49.968;19.844;2023-08-24T15:00:34;7.07;;;3.60;;
20739;SDS011;10530;49.968;19.844;2023-08-24T15:05:38;6.82;;;3.47;;
20739;SDS011;10530;49.968;19.844;2023-08-24T15:11:01;8.32;;;3.83;;
20739;SDS011;10530;49.968;19.844;2023-08-24T15:16:08;7.80;;;3.70;;
20739;SDS011;10530;49.968;19.844;2023-08-24T15:21:12;7.95;;;3.80;;
20739;SDS011;10530;49.968;19.844;2023-08-24T15:26:17;8.07;;;3.57;;
20739;SDS011;10530;49.968;19.844;2023-08-24T15:31:20;7.38;;;3.92;;
20739;SDS011;10530;49.968;19.844;2023-08-24T15:36:28;7.85;;;4.40;;
20739;SDS011;10530;49.968;19.844;2023-08-24T15:41:31;7.00;;;4.03;;
20739;SDS011;10530;49.968;19.844;2023-08-24T15:46:34;7.95;;;4.30;;
20739;SDS011;10530;49.968;19.844;2023-08-24T15:51:37;8.43;;;4.17;;
20739;SDS011;10530;49.968;19.844;2023-08-24T15:56:41;7.85;;;4.50;;
20739;SDS011;10530;49.968;19.844;2023-08-24T16:01:47;8.90;;;4.40;;
20739;SDS011;10530;49.968;19.844;2023-08-24T16:06:50;7.38;;;4.00;;
20739;SDS011;10530;49.968;19.844;2023-08-24T16:11:53;7.47;;;4.10;;
20739;SDS011;10530;49.968;19.844;2023-08-24T16:16:56;7.93;;;4.00;;
20739;SDS011;10530;49.968;19.844;2023-08-24T16:21:58;8.82;;;4.35;;
20739;SDS011;10530;49.968;19.844;2023-08-24T16:27:02;7.78;;;4.32;;
20739;SDS011;10530;49.968;19.844;2023-08-24T16:32:05;7.57;;;4.25;;
20739;SDS011;10530;49.968;19.844;2023-08-24T16:37:08;8.68;;;4.13;;
20739;SDS011;10530;49.968;19.844;2023-08-24T16:42:12;8.47;;;4.23;;
20739;SDS011;10530;49.968;19.844;2023-08-24T16:47:24;8.68;;;4.75;;
20739;SDS011;10530;49.968;19.844;2023-08-24T16:52:26;7.55;;;4.40;;
20739;SDS011;10530;49.968;19.844;2023-08-24T16:57:29;10.10;;;4.80;;
20739;SDS011;10530;49.968;19.844;2023-08-24T17:02:33;8.13;;;4.63;;
20739;SDS011;10530;49.968;19.844;2023-08-24T17:07:39;8.73;;;4.37;;
20739;SDS011;10530;49.968;19.844;2023-08-24T17:12:42;7.38;;;4.60;;
20739;SDS011;10530;49.968;19.844;2023-08-24T17:17:45;9.25;;;5.03;;
20739;SDS011;10530;49.968;19.844;2023-08-24T17:22:48;9.15;;;4.60;;
20739;SDS011;10530;49.968;19.844;2023-08-24T17:27:51;8.45;;;4.50;;
20739;SDS011;10530;49.968;19.844;2023-08-24T17:32:54;10.57;;;5.00;;
20739;SDS011;10530;49.968;19.844;2023-08-24T17:38:00;9.85;;;5.35;;
20739;SDS011;10530;49.968;19.844;2023-08-24T17:43:08;10.98;;;5.70;;
20739;SDS011;10530;49.968;19.844;2023-08-24T17:48:12;10.40;;;5.47;;
20739;SDS011;10530;49.968;19.844;2023-08-24T17:53:15;11.23;;;5.47;;
20739;SDS011;10530;49.968;19.844;2023-08-24T17:58:18;9.33;;;5.80;;
20739;SDS011;10530;49.968;19.844;2023-08-24T18:03:24;13.40;;;5.72;;
20739;SDS011;10530;49.968;19.844;2023-08-24T18:08:27;12.15;;;6.05;;
20739;SDS011;10530;49.968;19.844;2023-08-24T18:13:42;11.95;;;5.97;;
20739;SDS011;10530;49.968;19.844;2023-08-24T18:18:45;16.05;;;7.05;;
20739;SDS011;10530;49.968;19.844;2023-08-24T18:23:48;19.37;;;9.07;;
20739;SDS011;10530;49.968;19.844;2023-08-24T18:28:53;15.90;;;8.05;;
20739;SDS011;10530;49.968;19.844;2023-08-24T18:34:22;17.08;;;7.68;;
20739;SDS011;10530;49.968;19.844;2023-08-24T18:39:29;15.77;;;6.88;;
20739;SDS011;10530;49.968;19.844;2023-08-24T18:44:32;15.85;;;6.55;;
20739;SDS011;10530;49.968;19.844;2023-08-24T18:49:35;16.93;;;7.60;;
20739;SDS011;10530;49.968;19.844;2023-08-24T18:54:38;17.70;;;7.22;;
20739;SDS011;10530;49.968;19.844;2023-08-24T18:59:41;15.75;;;6.95;;
20739;SDS011;10530;49.968;19.844;2023-08-24T19:04:48;15.70;;;6.90;;
20739;SDS011;10530;49.968;19.844;2023-08-24T19:09:51;14.20;;;6.55;;
20739;SDS011;10530;49.968;19.844;2023-08-24T19:14:54;11.77;;;6.30;;
20739;SDS011;10530;49.968;19.844;2023-08-24T19:20:04;15.15;;;6.28;;
20739;SDS011;10530;49.968;19.844;2023-08-24T19:25:08;19.45;;;7.35;;
20739;SDS011;10530;49.968;19.844;2023-08-24T19:30:20;15.95;;;6.70;;
20739;SDS011;10530;49.968;19.844;2023-08-24T19:35:23;18.23;;;7.75;;
20739;SDS011;10530;49.968;19.844;2023-08-24T19:40:26;20.17;;;10.17;;
20739;SDS011;10530;49.968;19.844;2023-08-24T19:45:29;26.35;;;10.63;;
20739;SDS011;10530;49.968;19.844;2023-08-24T19:50:36;16.58;;;7.63;;
20739;SDS011;10530;49.968;19.844;2023-08-24T19:55:39;18.90;;;7.57;;
20739;SDS011;10530;49.968;19.844;2023-08-24T20:00:44;20.27;;;8.35;;
20739;SDS011;10530;49.968;19.844;2023-08-24T20:05:47;23.63;;;7.60;;
20739;SDS011;10530;49.968;19.844;2023-08-24T20:10:50;17.23;;;6.85;;
20739;SDS011;10530;49.968;19.844;2023-08-24T20:15:54;19.77;;;8.27;;
20739;SDS011;10530;49.968;19.844;2023-08-24T20:21:06;20.95;;;7.07;;
20739;SDS011;10530;49.968;19.844;2023-08-24T20:26:10;17.15;;;7.20;;
20739;SDS011;10530;49.968;19.844;2023-08-24T20:31:14;15.90;;;6.70;;
20739;SDS011;10530;49.968;19.844;2023-08-24T20:36:17;13.27;;;6.57;;
20739;SDS011;10530;49.968;19.844;2023-08-24T20:41:20;15.48;;;5.65;;
20739;SDS011;10530;49.968;19.844;2023-08-24T20:46:23;9.93;;;6.00;;
20739;SDS011;10530;49.968;19.844;2023-08-24T20:51:27;14.93;;;6.35;;
20739;SDS011;10530;49.968;19.844;2023-08-24T20:56:30;10.63;;;6.00;;
20739;SDS011;10530;49.968;19.844;2023-08-24T21:01:33;12.77;;;6.43;;
20739;SDS011;10530;49.968;19.844;2023-08-24T21:06:36;12.45;;;6.63;;
20739;SDS011;10530;49.968;19.844;2023-08-24T21:11:38;11.23;;;6.47;;
20739;SDS011;10530;49.968;19.844;2023-08-24T21:16:41;11.15;;;5.93;;
20739;SDS011;10530;49.968;19.844;2023-08-24T21:21:44;10.20;;;6.00;;
20739;SDS011;10530;49.968;19.844;2023-08-24T21:26:47;14.50;;;6.65;;
20739;SDS011;10530;49.968;19.844;2023-08-24T21:31:50;13.38;;;6.70;;
20739;SDS011;10530;49.968;19.844;2023-08-24T21:36:53;14.52;;;7.32;;
20739;SDS011;10530;49.968;19.844;2023-08-24T21:41:56;13.75;;;7.07;;
20739;SDS011;10530;49.968;19.844;2023-08-24T21:47:00;14.57;;;7.23;;
20739;SDS011;10530;49.968;19.844;2023-08-24T21:52:03;15.13;;;7.78;;
20739;SDS011;10530;49.968;19.844;2023-08-24T21:57:06;15.30;;;7.30;;
20739;SDS011;10530;49.968;19.844;2023-08-24T22:02:09;13.43;;;7.47;;
20739;SDS011;10530;49.968;19.844;2023-08-24T22:07:12;16.52;;;7.38;;
20739;SDS011;10530;49.968;19.844;2023-08-24T22:12:15;12.67;;;7.13;;
20739;SDS011;10530;49.968;19.844;2023-08-24T22:17:19;15.70;;;8.10;;
20739;SDS011;10530;49.968;19.844;2023-08-24T22:22:22;14.60;;;7.45;;
20739;SDS011;10530;49.968;19.844;2023-08-24T22:27:25;16.88;;;7.78;;
20739;SDS011;10530;49.968;19.844;2023-08-24T22:32:27;15.07;;;7.75;;
20739;SDS011;10530;49.968;19.844;2023-08-24T22:37:30;17.47;;;8.13;;
20739;SDS011;10530;49.968;19.844;2023-08-24T22:42:33;16.63;;;7.43;;
20739;SDS011;10530;49.968;19.844;2023-08-24T22:47:35;16.02;;;8.05;;
20739;SDS011;10530;49.968;19.844;2023-08-24T22:52:39;17.92;;;8.60;;
20739;SDS011;10530;49.968;19.844;2023-08-24T22:57:45;15.77;;;8.02;;
20739;SDS011;10530;49.968;19.844;2023-08-24T23:02:48;19.27;;;8.93;;
20739;SDS011;10530;49.968;19.844;2023-08-24T23:07:51;18.10;;;9.02;;
20739;SDS011;10530;49.968;19.844;2023-08-24T23:12:54;18.08;;;8.32;;
20739;SDS011;10530;49.968;19.844;2023-08-24T23:17:56;17.65;;;8.10;;
20739;SDS011;10530;49.968;19.844;2023-08-24T23:22:59;17.92;;;8.30;;
20739;SDS011;10530;49.968;19.844;2023-08-24T23:28:02;15.13;;;7.03;;
20739;SDS011;10530;49.968;19.844;2023-08-24T23:33:06;14.48;;;7.80;;
20739;SDS011;10530;49.968;19.844;2023-08-24T23:38:09;15.38;;;7.93;;
20739;SDS011;10530;49.968;19.844;2023-08-24T23:43:12;16.23;;;8.30;;
20739;SDS011;10530;49.968;19.844;2023-08-24T23:48:15;15.07;;;9.02;;
20739;SDS011;10530;49.968;19.844;2023-08-24T23:53:17;15.77;;;8.07;;
20739;SDS011;10530;49.968;19.844;2023-08-24T23:58:21;16.55;;;7.60;;
